AAL2610 KPWM-KDCA
Flight info
| Callsign | AAL2610 |
|---|---|
| Flight time | 1h 28m |
| Altitude | 36000 |
| Route | NUBLE4 CCC TOPRR Q167 ZIZZI KNUKK ATR LAFLN DEALE3 |
| Aircraft | B738/M-SDE2E3FGHIRWXY/LB1 |
Departure
| Time | 2026-05-09 00:11 |
|---|---|
| Airport | Portland International Jetport (KPWM) |
Arrival
| Time | 2026-05-09 01:39 |
|---|---|
| Airport | Ronald Reagan Washington National Airport (KDCA) |
| Time | Latitude | Longitude | Altitude | Speed | Heading |
|---|---|---|---|---|---|
| 2026-05-08 23:39 | 43.64731 | -70.31293 | 68 ft | 0 kts | 66° |
| 2026-05-09 00:00 | 43.64726 | -70.31310 | 68 ft | 2 kts | 66° |
| 2026-05-09 00:00 | 43.64720 | -70.31327 | 68 ft | 2 kts | 66° |
| 2026-05-09 00:00 | 43.64714 | -70.31347 | 68 ft | 2 kts | 66° |
| 2026-05-09 00:00 | 43.64711 | -70.31368 | 68 ft | 2 kts | 103° |
| 2026-05-09 00:01 | 43.64717 | -70.31385 | 68 ft | 1 kts | 135° |
| 2026-05-09 00:01 | 43.64722 | -70.31390 | 69 ft | 1 kts | 144° |
| 2026-05-09 00:01 | 43.64724 | -70.31393 | 69 ft | 0 kts | 142° |
| 2026-05-09 00:05 | 43.64697 | -70.31363 | 68 ft | 8 kts | 142° |
| 2026-05-09 00:05 | 43.64647 | -70.31308 | 66 ft | 9 kts | 140° |
| 2026-05-09 00:05 | 43.64606 | -70.31232 | 65 ft | 10 kts | 104° |
| 2026-05-09 00:05 | 43.64597 | -70.31120 | 63 ft | 12 kts | 95° |
| 2026-05-09 00:06 | 43.64589 | -70.30995 | 60 ft | 14 kts | 95° |
| 2026-05-09 00:06 | 43.64579 | -70.30853 | 57 ft | 15 kts | 95° |
| 2026-05-09 00:06 | 43.64568 | -70.30691 | 51 ft | 18 kts | 95° |
| 2026-05-09 00:06 | 43.64557 | -70.30530 | 48 ft | 15 kts | 96° |
| 2026-05-09 00:07 | 43.64569 | -70.30376 | 43 ft | 17 kts | 73° |
| 2026-05-09 00:07 | 43.64584 | -70.30192 | 36 ft | 20 kts | 95° |
| 2026-05-09 00:07 | 43.64573 | -70.30029 | 31 ft | 12 kts | 95° |
| 2026-05-09 00:07 | 43.64563 | -70.29944 | 28 ft | 7 kts | 123° |
| 2026-05-09 00:08 | 43.64511 | -70.29919 | 28 ft | 5 kts | 178° |
| 2026-05-09 00:08 | 43.64500 | -70.29918 | 28 ft | 0 kts | 178° |
| 2026-05-09 00:09 | 43.64499 | -70.29918 | 28 ft | 1 kts | 178° |
| 2026-05-09 00:09 | 43.64489 | -70.29917 | 28 ft | 0 kts | 178° |
| 2026-05-09 00:09 | 43.64460 | -70.29916 | 29 ft | 8 kts | 178° |
| 2026-05-09 00:09 | 43.64418 | -70.29937 | 30 ft | 5 kts | 239° |
| 2026-05-09 00:10 | 43.64411 | -70.29980 | 32 ft | 3 kts | 271° |
| 2026-05-09 00:10 | 43.64415 | -70.30068 | 35 ft | 29 kts | 276° |
| 2026-05-09 00:10 | 43.64462 | -70.30744 | 54 ft | 109 kts | 275° |
| 2026-05-09 00:10 | 43.64557 | -70.32118 | 92 ft | 172 kts | 277° |
| 2026-05-09 00:11 | 43.64668 | -70.33768 | 880 ft | 177 kts | 276° |
| 2026-05-09 00:11 | 43.64730 | -70.35435 | 1814 ft | 178 kts | 275° |
| 2026-05-09 00:11 | 43.64758 | -70.37108 | 2555 ft | 179 kts | 274° |
| 2026-05-09 00:11 | 43.64810 | -70.38840 | 3227 ft | 184 kts | 277° |
| 2026-05-09 00:12 | 43.64913 | -70.40665 | 3722 ft | 201 kts | 277° |
| 2026-05-09 00:12 | 43.65017 | -70.42643 | 4304 ft | 216 kts | 275° |
| 2026-05-09 00:12 | 43.64865 | -70.44768 | 4845 ft | 236 kts | 253° |
| 2026-05-09 00:12 | 43.63940 | -70.46671 | 5503 ft | 254 kts | 224° |
| 2026-05-09 00:13 | 43.62469 | -70.48110 | 6282 ft | 263 kts | 215° |
| 2026-05-09 00:13 | 43.60905 | -70.49421 | 7158 ft | 266 kts | 215° |
| 2026-05-09 00:13 | 43.59339 | -70.50764 | 8019 ft | 269 kts | 216° |
| 2026-05-09 00:13 | 43.57772 | -70.52162 | 8894 ft | 272 kts | 218° |
| 2026-05-09 00:14 | 43.56210 | -70.53589 | 9742 ft | 273 kts | 218° |
| 2026-05-09 00:14 | 43.54643 | -70.55036 | 10516 ft | 278 kts | 218° |
| 2026-05-09 00:14 | 43.52984 | -70.56549 | 10978 ft | 295 kts | 216° |
| 2026-05-09 00:14 | 43.51091 | -70.57825 | 11391 ft | 315 kts | 205° |
| 2026-05-09 00:15 | 43.48944 | -70.58782 | 11803 ft | 333 kts | 201° |
| 2026-05-09 00:15 | 43.46661 | -70.59639 | 12316 ft | 346 kts | 200° |
| 2026-05-09 00:15 | 43.44326 | -70.60501 | 12961 ft | 353 kts | 200° |
| 2026-05-09 00:15 | 43.41957 | -70.61401 | 13673 ft | 358 kts | 200° |
| 2026-05-09 00:16 | 43.39551 | -70.62346 | 14403 ft | 362 kts | 201° |
| 2026-05-09 00:16 | 43.37128 | -70.63321 | 15145 ft | 366 kts | 202° |
| 2026-05-09 00:16 | 43.34674 | -70.64320 | 15864 ft | 370 kts | 202° |
| 2026-05-09 00:16 | 43.32218 | -70.65322 | 16544 ft | 374 kts | 201° |
| 2026-05-09 00:17 | 43.29715 | -70.66341 | 17260 ft | 377 kts | 201° |
| 2026-05-09 00:17 | 43.27187 | -70.67368 | 17979 ft | 380 kts | 201° |
| 2026-05-09 00:17 | 43.24677 | -70.68386 | 18674 ft | 383 kts | 202° |
| 2026-05-09 00:17 | 43.22104 | -70.69430 | 19265 ft | 388 kts | 202° |
| 2026-05-09 00:18 | 43.19519 | -70.70486 | 19926 ft | 390 kts | 203° |
| 2026-05-09 00:18 | 43.16955 | -70.71665 | 20458 ft | 392 kts | 207° |
| 2026-05-09 00:18 | 43.14452 | -70.73133 | 21122 ft | 391 kts | 212° |
| 2026-05-09 00:18 | 43.12018 | -70.74772 | 21677 ft | 393 kts | 214° |
| 2026-05-09 00:19 | 43.09594 | -70.76508 | 22259 ft | 395 kts | 215° |
| 2026-05-09 00:19 | 43.07149 | -70.78297 | 22748 ft | 400 kts | 216° |
| 2026-05-09 00:19 | 43.04713 | -70.80087 | 23343 ft | 402 kts | 216° |
| 2026-05-09 00:19 | 43.02245 | -70.81889 | 23876 ft | 406 kts | 216° |
| 2026-05-09 00:20 | 42.99736 | -70.83714 | 24377 ft | 410 kts | 216° |
| 2026-05-09 00:20 | 42.97228 | -70.85525 | 24993 ft | 410 kts | 216° |
| 2026-05-09 00:20 | 42.94690 | -70.87348 | 25497 ft | 414 kts | 216° |
| 2026-05-09 00:20 | 42.92170 | -70.89154 | 25996 ft | 416 kts | 216° |
| 2026-05-09 00:21 | 42.89587 | -70.90999 | 26558 ft | 417 kts | 216° |
| 2026-05-09 00:21 | 42.87000 | -70.92843 | 26977 ft | 421 kts | 216° |
| 2026-05-09 00:21 | 42.84416 | -70.94672 | 27427 ft | 424 kts | 215° |
| 2026-05-09 00:21 | 42.81721 | -70.96377 | 27916 ft | 431 kts | 212° |
| 2026-05-09 00:22 | 42.78924 | -70.97887 | 28348 ft | 436 kts | 210° |
| 2026-05-09 00:22 | 42.76039 | -70.99309 | 28807 ft | 439 kts | 208° |
| 2026-05-09 00:22 | 42.73190 | -71.00654 | 29303 ft | 440 kts | 208° |
| 2026-05-09 00:22 | 42.70259 | -71.02021 | 29709 ft | 443 kts | 208° |
| 2026-05-09 00:23 | 42.67353 | -71.03381 | 30073 ft | 446 kts | 208° |
| 2026-05-09 00:23 | 42.64402 | -71.04772 | 30540 ft | 446 kts | 208° |
| 2026-05-09 00:23 | 42.61505 | -71.06143 | 31086 ft | 442 kts | 208° |
| 2026-05-09 00:23 | 42.58608 | -71.07519 | 31588 ft | 439 kts | 208° |
| 2026-05-09 00:24 | 42.55760 | -71.08881 | 31989 ft | 438 kts | 209° |
| 2026-05-09 00:24 | 42.52883 | -71.10263 | 32320 ft | 437 kts | 209° |
| 2026-05-09 00:24 | 42.50056 | -71.11626 | 32599 ft | 437 kts | 209° |
| 2026-05-09 00:24 | 42.47174 | -71.13020 | 32904 ft | 436 kts | 210° |
| 2026-05-09 00:25 | 42.44364 | -71.14520 | 33223 ft | 431 kts | 213° |
| 2026-05-09 00:25 | 42.41730 | -71.16244 | 33584 ft | 422 kts | 218° |
| 2026-05-09 00:25 | 42.39211 | -71.18250 | 33908 ft | 415 kts | 221° |
| 2026-05-09 00:25 | 42.36826 | -71.20409 | 34219 ft | 412 kts | 224° |
| 2026-05-09 00:26 | 42.34515 | -71.22639 | 34500 ft | 411 kts | 225° |
| 2026-05-09 00:26 | 42.32224 | -71.24921 | 34821 ft | 409 kts | 225° |
| 2026-05-09 00:26 | 42.29952 | -71.27212 | 35094 ft | 409 kts | 225° |
| 2026-05-09 00:26 | 42.27669 | -71.29514 | 35359 ft | 409 kts | 225° |
| 2026-05-09 00:27 | 42.25382 | -71.31812 | 35636 ft | 408 kts | 225° |
| 2026-05-09 00:27 | 42.23120 | -71.34074 | 35890 ft | 408 kts | 225° |
| 2026-05-09 00:27 | 42.20819 | -71.36367 | 35939 ft | 409 kts | 225° |
| 2026-05-09 00:28 | 42.16288 | -71.40852 | 35949 ft | 407 kts | 225° |
| 2026-05-09 00:28 | 42.11717 | -71.45358 | 35946 ft | 407 kts | 225° |
| 2026-05-09 00:29 | 42.07138 | -71.49859 | 35951 ft | 406 kts | 225° |
| 2026-05-09 00:29 | 42.02595 | -71.54317 | 35957 ft | 407 kts | 225° |
| 2026-05-09 00:30 | 41.98065 | -71.58752 | 35954 ft | 405 kts | 225° |
| 2026-05-09 00:30 | 41.93487 | -71.63226 | 35951 ft | 406 kts | 225° |
| 2026-05-09 00:31 | 41.88936 | -71.67665 | 35959 ft | 404 kts | 225° |
| 2026-05-09 00:31 | 41.84432 | -71.72047 | 35950 ft | 401 kts | 225° |
| 2026-05-09 00:32 | 41.79905 | -71.76451 | 35954 ft | 404 kts | 225° |
| 2026-05-09 00:32 | 41.75382 | -71.80842 | 35954 ft | 401 kts | 225° |
| 2026-05-09 00:33 | 41.70833 | -71.85247 | 35959 ft | 402 kts | 225° |
| 2026-05-09 00:33 | 41.66352 | -71.89579 | 35963 ft | 401 kts | 225° |
| 2026-05-09 00:34 | 41.61842 | -71.93932 | 35961 ft | 398 kts | 226° |
| 2026-05-09 00:34 | 41.57353 | -71.98262 | 35963 ft | 400 kts | 226° |
| 2026-05-09 00:35 | 41.53133 | -72.02893 | 35961 ft | 391 kts | 232° |
| 2026-05-09 00:35 | 41.49254 | -72.07913 | 35961 ft | 389 kts | 233° |
| 2026-05-09 00:36 | 41.45441 | -72.12946 | 35961 ft | 387 kts | 234° |
| 2026-05-09 00:36 | 41.41603 | -72.17962 | 35962 ft | 387 kts | 233° |
| 2026-05-09 00:37 | 41.37736 | -72.22956 | 35963 ft | 386 kts | 233° |
| 2026-05-09 00:37 | 41.33899 | -72.27889 | 35965 ft | 386 kts | 233° |
| 2026-05-09 00:38 | 41.30024 | -72.32853 | 35966 ft | 387 kts | 233° |
| 2026-05-09 00:38 | 41.26186 | -72.37750 | 35966 ft | 381 kts | 233° |
| 2026-05-09 00:39 | 41.22355 | -72.42643 | 35967 ft | 386 kts | 234° |
| 2026-05-09 00:39 | 41.18514 | -72.47535 | 35969 ft | 383 kts | 233° |
| 2026-05-09 00:40 | 41.14657 | -72.52431 | 35975 ft | 381 kts | 234° |
| 2026-05-09 00:40 | 41.10847 | -72.57265 | 35977 ft | 381 kts | 234° |
| 2026-05-09 00:41 | 41.05132 | -72.64501 | 35974 ft | 378 kts | 234° |
| 2026-05-09 00:41 | 41.01321 | -72.69318 | 35981 ft | 379 kts | 233° |
| 2026-05-09 00:42 | 40.97504 | -72.74137 | 35978 ft | 379 kts | 233° |
| 2026-05-09 00:42 | 40.93583 | -72.78841 | 35981 ft | 386 kts | 229° |
| 2026-05-09 00:43 | 40.89015 | -72.82756 | 35978 ft | 397 kts | 220° |
| 2026-05-09 00:43 | 40.84160 | -72.86121 | 35977 ft | 398 kts | 219° |
| 2026-05-09 00:44 | 40.79204 | -72.89472 | 35976 ft | 400 kts | 219° |
| 2026-05-09 00:44 | 40.74269 | -72.92821 | 35977 ft | 395 kts | 219° |
| 2026-05-09 00:45 | 40.69416 | -72.96145 | 35980 ft | 396 kts | 220° |
| 2026-05-09 00:45 | 40.64508 | -72.99519 | 35978 ft | 395 kts | 220° |
| 2026-05-09 00:46 | 40.59648 | -73.02853 | 35983 ft | 396 kts | 220° |
| 2026-05-09 00:46 | 40.54775 | -73.06194 | 35848 ft | 392 kts | 220° |
| 2026-05-09 00:47 | 40.52363 | -73.07843 | 35981 ft | 394 kts | 220° |
| 2026-05-09 00:47 | 40.49938 | -73.09508 | 35981 ft | 395 kts | 220° |
| 2026-05-09 00:47 | 40.45078 | -73.12835 | 35989 ft | 395 kts | 220° |
| 2026-05-09 00:48 | 40.40171 | -73.16187 | 35866 ft | 396 kts | 220° |
| 2026-05-09 00:48 | 40.37759 | -73.17825 | 35645 ft | 392 kts | 220° |
| 2026-05-09 00:48 | 40.35341 | -73.19460 | 35453 ft | 388 kts | 220° |
| 2026-05-09 00:49 | 40.32982 | -73.21059 | 35283 ft | 386 kts | 220° |
| 2026-05-09 00:49 | 40.30581 | -73.22688 | 35090 ft | 385 kts | 221° |
| 2026-05-09 00:49 | 40.28205 | -73.24309 | 34899 ft | 389 kts | 221° |
| 2026-05-09 00:49 | 40.25804 | -73.25949 | 34687 ft | 389 kts | 220° |
| 2026-05-09 00:50 | 40.23408 | -73.27576 | 34464 ft | 390 kts | 221° |
| 2026-05-09 00:50 | 40.20985 | -73.29223 | 34237 ft | 392 kts | 221° |
| 2026-05-09 00:50 | 40.18588 | -73.30847 | 34027 ft | 391 kts | 221° |
| 2026-05-09 00:50 | 40.16168 | -73.32480 | 33993 ft | 390 kts | 221° |
| 2026-05-09 00:51 | 40.11346 | -73.35744 | 33989 ft | 392 kts | 220° |
| 2026-05-09 00:51 | 40.06522 | -73.38993 | 33995 ft | 392 kts | 220° |
| 2026-05-09 00:52 | 40.01682 | -73.42258 | 33987 ft | 393 kts | 221° |
| 2026-05-09 00:52 | 39.96825 | -73.45521 | 33990 ft | 392 kts | 221° |
| 2026-05-09 00:53 | 39.91978 | -73.48776 | 33991 ft | 392 kts | 221° |
| 2026-05-09 00:53 | 39.87164 | -73.52033 | 33988 ft | 388 kts | 223° |
| 2026-05-09 00:54 | 39.82740 | -73.55799 | 33994 ft | 376 kts | 230° |
| 2026-05-09 00:54 | 39.78754 | -73.60100 | 33992 ft | 371 kts | 233° |
| 2026-05-09 00:55 | 39.74852 | -73.64520 | 33991 ft | 371 kts | 233° |
| 2026-05-09 00:55 | 39.70945 | -73.68917 | 33990 ft | 374 kts | 232° |
| 2026-05-09 00:56 | 39.67024 | -73.73281 | 33991 ft | 370 kts | 232° |
| 2026-05-09 00:56 | 39.63067 | -73.77678 | 33991 ft | 376 kts | 232° |
| 2026-05-09 00:57 | 39.59144 | -73.82003 | 33992 ft | 374 kts | 232° |
| 2026-05-09 00:57 | 39.55148 | -73.86415 | 33990 ft | 376 kts | 232° |
| 2026-05-09 00:58 | 39.51172 | -73.90796 | 33990 ft | 375 kts | 232° |
| 2026-05-09 00:58 | 39.47227 | -73.95127 | 33989 ft | 375 kts | 232° |
| 2026-05-09 00:59 | 39.43231 | -73.99519 | 33988 ft | 375 kts | 232° |
| 2026-05-09 00:59 | 39.39271 | -74.03856 | 33986 ft | 375 kts | 232° |
| 2026-05-09 01:00 | 39.35276 | -74.08225 | 33984 ft | 375 kts | 232° |
| 2026-05-09 01:00 | 39.31298 | -74.12557 | 33986 ft | 374 kts | 232° |
| 2026-05-09 01:01 | 39.27307 | -74.16911 | 33983 ft | 377 kts | 232° |
| 2026-05-09 01:01 | 39.23318 | -74.21247 | 33985 ft | 376 kts | 232° |
| 2026-05-09 01:02 | 39.19330 | -74.25588 | 33986 ft | 376 kts | 232° |
| 2026-05-09 01:02 | 39.15355 | -74.29893 | 33992 ft | 374 kts | 231° |
| 2026-05-09 01:03 | 39.11361 | -74.34222 | 33989 ft | 375 kts | 231° |
| 2026-05-09 01:03 | 39.07392 | -74.38517 | 33988 ft | 378 kts | 232° |
| 2026-05-09 01:04 | 39.03384 | -74.42842 | 33989 ft | 374 kts | 232° |
| 2026-05-09 01:04 | 38.99360 | -74.47183 | 33990 ft | 377 kts | 232° |
| 2026-05-09 01:05 | 38.95779 | -74.51814 | 33990 ft | 360 kts | 243° |
| 2026-05-09 01:05 | 38.93430 | -74.57278 | 33995 ft | 344 kts | 255° |
| 2026-05-09 01:06 | 38.92646 | -74.60160 | 34002 ft | 339 kts | 259° |
| 2026-05-09 01:06 | 38.91448 | -74.65987 | 33992 ft | 339 kts | 261° |
| 2026-05-09 01:06 | 38.90895 | -74.68923 | 33851 ft | 337 kts | 261° |
| 2026-05-09 01:07 | 38.90351 | -74.71797 | 33235 ft | 334 kts | 261° |
| 2026-05-09 01:07 | 38.89803 | -74.74680 | 32071 ft | 343 kts | 260° |
| 2026-05-09 01:07 | 38.89238 | -74.77651 | 31267 ft | 341 kts | 260° |
| 2026-05-09 01:07 | 38.88687 | -74.80566 | 31046 ft | 330 kts | 261° |
| 2026-05-09 01:08 | 38.88156 | -74.83381 | 30728 ft | 323 kts | 261° |
| 2026-05-09 01:08 | 38.87639 | -74.86131 | 30339 ft | 318 kts | 261° |
| 2026-05-09 01:08 | 38.87120 | -74.88896 | 29934 ft | 326 kts | 261° |
| 2026-05-09 01:08 | 38.86580 | -74.91806 | 29490 ft | 341 kts | 261° |
| 2026-05-09 01:09 | 38.86025 | -74.94760 | 29026 ft | 342 kts | 260° |
| 2026-05-09 01:09 | 38.85469 | -74.97675 | 28577 ft | 337 kts | 261° |
| 2026-05-09 01:09 | 38.84917 | -75.00555 | 28140 ft | 331 kts | 260° |
| 2026-05-09 01:09 | 38.84371 | -75.03413 | 27701 ft | 326 kts | 260° |
| 2026-05-09 01:10 | 38.83837 | -75.06194 | 27277 ft | 321 kts | 260° |
| 2026-05-09 01:10 | 38.83308 | -75.08956 | 26850 ft | 317 kts | 260° |
| 2026-05-09 01:10 | 38.82792 | -75.11644 | 26426 ft | 312 kts | 261° |
| 2026-05-09 01:10 | 38.82279 | -75.14326 | 26004 ft | 308 kts | 260° |
| 2026-05-09 01:11 | 38.81773 | -75.16972 | 25604 ft | 312 kts | 260° |
| 2026-05-09 01:11 | 38.81253 | -75.19761 | 25164 ft | 329 kts | 261° |
| 2026-05-09 01:11 | 38.80855 | -75.22634 | 24709 ft | 328 kts | 265° |
| 2026-05-09 01:11 | 38.80618 | -75.25530 | 24252 ft | 323 kts | 267° |
| 2026-05-09 01:12 | 38.80453 | -75.28374 | 23808 ft | 318 kts | 268° |
| 2026-05-09 01:12 | 38.80307 | -75.31168 | 23364 ft | 314 kts | 268° |
| 2026-05-09 01:12 | 38.80159 | -75.33904 | 22931 ft | 310 kts | 268° |
| 2026-05-09 01:12 | 38.80003 | -75.36641 | 22495 ft | 306 kts | 268° |
| 2026-05-09 01:13 | 38.79842 | -75.39326 | 22072 ft | 301 kts | 268° |
| 2026-05-09 01:13 | 38.79679 | -75.41984 | 21647 ft | 298 kts | 268° |
| 2026-05-09 01:13 | 38.79514 | -75.44659 | 21228 ft | 309 kts | 268° |
| 2026-05-09 01:13 | 38.79343 | -75.47465 | 20784 ft | 320 kts | 268° |
| 2026-05-09 01:14 | 38.79166 | -75.50287 | 20323 ft | 317 kts | 268° |
| 2026-05-09 01:14 | 38.78989 | -75.53043 | 19867 ft | 313 kts | 268° |
| 2026-05-09 01:14 | 38.78809 | -75.55810 | 19398 ft | 310 kts | 268° |
| 2026-05-09 01:14 | 38.78631 | -75.58545 | 18954 ft | 306 kts | 268° |
| 2026-05-09 01:15 | 38.78455 | -75.61230 | 18497 ft | 303 kts | 268° |
| 2026-05-09 01:15 | 38.78283 | -75.63886 | 18063 ft | 299 kts | 269° |
| 2026-05-09 01:15 | 38.78113 | -75.66492 | 17654 ft | 295 kts | 268° |
| 2026-05-09 01:15 | 38.77943 | -75.69106 | 17235 ft | 292 kts | 268° |
| 2026-05-09 01:16 | 38.77777 | -75.71673 | 16804 ft | 289 kts | 268° |
| 2026-05-09 01:16 | 38.77611 | -75.74226 | 16376 ft | 287 kts | 268° |
| 2026-05-09 01:16 | 38.77446 | -75.76733 | 15971 ft | 284 kts | 268° |
| 2026-05-09 01:17 | 38.77111 | -75.81839 | 15119 ft | 301 kts | 268° |
| 2026-05-09 01:17 | 38.76934 | -75.84541 | 14661 ft | 302 kts | 267° |
| 2026-05-09 01:17 | 38.76756 | -75.87198 | 14269 ft | 297 kts | 267° |
| 2026-05-09 01:17 | 38.76580 | -75.89784 | 13832 ft | 294 kts | 267° |
| 2026-05-09 01:18 | 38.76404 | -75.92373 | 13389 ft | 291 kts | 267° |
| 2026-05-09 01:18 | 38.76230 | -75.94943 | 12962 ft | 288 kts | 267° |
| 2026-05-09 01:18 | 38.76059 | -75.97484 | 12548 ft | 286 kts | 267° |
| 2026-05-09 01:18 | 38.75889 | -75.99993 | 12118 ft | 285 kts | 267° |
| 2026-05-09 01:19 | 38.75716 | -76.02531 | 11670 ft | 283 kts | 267° |
| 2026-05-09 01:19 | 38.75548 | -76.05008 | 11252 ft | 282 kts | 267° |
| 2026-05-09 01:19 | 38.75493 | -76.07529 | 11018 ft | 284 kts | 274° |
| 2026-05-09 01:19 | 38.75673 | -76.10098 | 11003 ft | 296 kts | 278° |
| 2026-05-09 01:20 | 38.75944 | -76.12697 | 11008 ft | 297 kts | 278° |
| 2026-05-09 01:20 | 38.76233 | -76.15344 | 11007 ft | 299 kts | 278° |
| 2026-05-09 01:20 | 38.76504 | -76.17950 | 11007 ft | 297 kts | 278° |
| 2026-05-09 01:20 | 38.76762 | -76.20584 | 11013 ft | 299 kts | 278° |
| 2026-05-09 01:21 | 38.77010 | -76.23199 | 11013 ft | 296 kts | 278° |
| 2026-05-09 01:21 | 38.77256 | -76.25838 | 11019 ft | 297 kts | 278° |
| 2026-05-09 01:21 | 38.77497 | -76.28427 | 10998 ft | 297 kts | 278° |
| 2026-05-09 01:21 | 38.77741 | -76.31052 | 11008 ft | 298 kts | 278° |
| 2026-05-09 01:22 | 38.77985 | -76.33693 | 11016 ft | 297 kts | 277° |
| 2026-05-09 01:22 | 38.78225 | -76.36295 | 11013 ft | 298 kts | 277° |
| 2026-05-09 01:22 | 38.78469 | -76.38941 | 10999 ft | 297 kts | 277° |
| 2026-05-09 01:22 | 38.78707 | -76.41551 | 10798 ft | 291 kts | 277° |
| 2026-05-09 01:23 | 38.78936 | -76.44081 | 10540 ft | 283 kts | 277° |
| 2026-05-09 01:23 | 38.79161 | -76.46551 | 10365 ft | 274 kts | 277° |
| 2026-05-09 01:23 | 38.79385 | -76.48994 | 10279 ft | 284 kts | 277° |
| 2026-05-09 01:23 | 38.79615 | -76.51497 | 10165 ft | 285 kts | 277° |
| 2026-05-09 01:24 | 38.79832 | -76.54012 | 10002 ft | 284 kts | 276° |
| 2026-05-09 01:24 | 38.79958 | -76.56533 | 9998 ft | 283 kts | 274° |
| 2026-05-09 01:24 | 38.80027 | -76.59051 | 9994 ft | 283 kts | 273° |
| 2026-05-09 01:24 | 38.80086 | -76.61517 | 9996 ft | 268 kts | 273° |
| 2026-05-09 01:25 | 38.80147 | -76.63832 | 9998 ft | 253 kts | 273° |
| 2026-05-09 01:25 | 38.80213 | -76.66059 | 10003 ft | 252 kts | 273° |
| 2026-05-09 01:25 | 38.80286 | -76.68301 | 9976 ft | 251 kts | 273° |
| 2026-05-09 01:25 | 38.80361 | -76.70528 | 9978 ft | 251 kts | 272° |
| 2026-05-09 01:26 | 38.80437 | -76.72759 | 10003 ft | 251 kts | 272° |
| 2026-05-09 01:26 | 38.80511 | -76.74995 | 10000 ft | 252 kts | 273° |
| 2026-05-09 01:26 | 38.80640 | -76.77229 | 9998 ft | 252 kts | 279° |
| 2026-05-09 01:26 | 38.81210 | -76.79340 | 10000 ft | 254 kts | 300° |
| 2026-05-09 01:27 | 38.82283 | -76.81132 | 10001 ft | 256 kts | 308° |
| 2026-05-09 01:27 | 38.83450 | -76.82845 | 9997 ft | 254 kts | 308° |
| 2026-05-09 01:27 | 38.84592 | -76.84567 | 9788 ft | 251 kts | 307° |
| 2026-05-09 01:27 | 38.85696 | -76.86302 | 9361 ft | 253 kts | 306° |
| 2026-05-09 01:28 | 38.86785 | -76.88052 | 8966 ft | 254 kts | 305° |
| 2026-05-09 01:28 | 38.87901 | -76.89812 | 8577 ft | 255 kts | 307° |
| 2026-05-09 01:28 | 38.89117 | -76.91499 | 8157 ft | 257 kts | 311° |
| 2026-05-09 01:28 | 38.90391 | -76.93099 | 7751 ft | 259 kts | 313° |
| 2026-05-09 01:29 | 38.91680 | -76.94691 | 7440 ft | 256 kts | 313° |
| 2026-05-09 01:29 | 38.92953 | -76.96287 | 7064 ft | 257 kts | 312° |
| 2026-05-09 01:29 | 38.94218 | -76.97898 | 6692 ft | 257 kts | 312° |
| 2026-05-09 01:29 | 38.95470 | -76.99503 | 6325 ft | 257 kts | 312° |
| 2026-05-09 01:30 | 38.96747 | -77.01142 | 5928 ft | 258 kts | 311° |
| 2026-05-09 01:30 | 38.98021 | -77.02774 | 5555 ft | 258 kts | 312° |
| 2026-05-09 01:30 | 38.99276 | -77.04380 | 5264 ft | 255 kts | 311° |
| 2026-05-09 01:30 | 39.00534 | -77.05988 | 4915 ft | 255 kts | 311° |
| 2026-05-09 01:31 | 39.01791 | -77.07604 | 4554 ft | 255 kts | 311° |
| 2026-05-09 01:31 | 39.03047 | -77.09218 | 4186 ft | 256 kts | 311° |
| 2026-05-09 01:31 | 39.04294 | -77.10813 | 3876 ft | 254 kts | 312° |
| 2026-05-09 01:31 | 39.05563 | -77.12382 | 3628 ft | 250 kts | 313° |
| 2026-05-09 01:32 | 39.06813 | -77.13895 | 3397 ft | 244 kts | 313° |
| 2026-05-09 01:32 | 39.07995 | -77.15437 | 3137 ft | 236 kts | 302° |
| 2026-05-09 01:32 | 39.08478 | -77.17301 | 2992 ft | 216 kts | 265° |
| 2026-05-09 01:32 | 39.08107 | -77.19069 | 2995 ft | 198 kts | 242° |
| 2026-05-09 01:33 | 39.07365 | -77.20459 | 2991 ft | 181 kts | 227° |
| 2026-05-09 01:33 | 39.06419 | -77.21475 | 2994 ft | 176 kts | 215° |
| 2026-05-09 01:33 | 39.05315 | -77.22131 | 2991 ft | 177 kts | 195° |
| 2026-05-09 01:33 | 39.04055 | -77.22174 | 2995 ft | 185 kts | 175° |
| 2026-05-09 01:34 | 39.02817 | -77.21708 | 2956 ft | 180 kts | 159° |
| 2026-05-09 01:34 | 39.01797 | -77.20837 | 2925 ft | 178 kts | 145° |
| 2026-05-09 01:34 | 39.00845 | -77.19786 | 2895 ft | 178 kts | 145° |
| 2026-05-09 01:34 | 38.99890 | -77.18780 | 2857 ft | 177 kts | 147° |
| 2026-05-09 01:35 | 38.98924 | -77.17804 | 2815 ft | 176 kts | 147° |
| 2026-05-09 01:35 | 38.97963 | -77.16825 | 2769 ft | 176 kts | 147° |
| 2026-05-09 01:35 | 38.97017 | -77.15858 | 2715 ft | 175 kts | 146° |
| 2026-05-09 01:35 | 38.96075 | -77.14865 | 2656 ft | 175 kts | 145° |
| 2026-05-09 01:36 | 38.95146 | -77.13833 | 2405 ft | 176 kts | 143° |
| 2026-05-09 01:36 | 38.94252 | -77.12820 | 2198 ft | 167 kts | 145° |
| 2026-05-09 01:36 | 38.93374 | -77.11874 | 1993 ft | 160 kts | 150° |
| 2026-05-09 01:36 | 38.92415 | -77.11186 | 1799 ft | 159 kts | 161° |
| 2026-05-09 01:37 | 38.91427 | -77.10571 | 1593 ft | 152 kts | 153° |
| 2026-05-09 01:37 | 38.90709 | -77.09575 | 1356 ft | 158 kts | 120° |
| 2026-05-09 01:37 | 38.90435 | -77.08202 | 1189 ft | 158 kts | 105° |
| 2026-05-09 01:37 | 38.89992 | -77.06960 | 974 ft | 150 kts | 137° |
| 2026-05-09 01:38 | 38.89299 | -77.05995 | 759 ft | 146 kts | 136° |
| 2026-05-09 01:38 | 38.88611 | -77.05044 | 526 ft | 145 kts | 140° |
| 2026-05-09 01:38 | 38.87819 | -77.04305 | 356 ft | 139 kts | 156° |
| 2026-05-09 01:38 | 38.86888 | -77.03957 | 193 ft | 141 kts | 172° |
| 2026-05-09 01:39 | 38.85917 | -77.03854 | 24 ft | 142 kts | 176° |
| 2026-05-09 01:39 | 38.85146 | -77.03776 | 22 ft | 73 kts | 175° |
| 2026-05-09 01:39 | 38.84770 | -77.03740 | 18 ft | 47 kts | 175° |
| 2026-05-09 01:39 | 38.84473 | -77.03709 | 17 ft | 27 kts | 178° |
| 2026-05-09 01:40 | 38.84394 | -77.03774 | 16 ft | 9 kts | 257° |
| 2026-05-09 01:40 | 38.84390 | -77.03816 | 16 ft | 2 kts | 264° |
| 2026-05-09 01:40 | 38.84391 | -77.03826 | 16 ft | 0 kts | 292° |
| 2026-05-09 01:40 | 38.84401 | -77.03839 | 16 ft | 3 kts | 337° |
| 2026-05-09 01:41 | 38.84423 | -77.03844 | 16 ft | 2 kts | 353° |
| 2026-05-09 01:41 | 38.84460 | -77.03848 | 16 ft | 9 kts | 356° |
| 2026-05-09 01:41 | 38.84525 | -77.03854 | 17 ft | 9 kts | 356° |
| 2026-05-09 01:41 | 38.84599 | -77.03861 | 18 ft | 11 kts | 355° |
| 2026-05-09 01:42 | 38.84683 | -77.03870 | 20 ft | 13 kts | 355° |
| 2026-05-09 01:42 | 38.84750 | -77.03924 | 21 ft | 11 kts | 323° |
| 2026-05-09 01:42 | 38.84826 | -77.03944 | 21 ft | 11 kts | 357° |
| 2026-05-09 01:42 | 38.84904 | -77.03951 | 22 ft | 11 kts | 355° |
| 2026-05-09 01:43 | 38.84985 | -77.03960 | 22 ft | 12 kts | 355° |
| 2026-05-09 01:43 | 38.85078 | -77.03970 | 22 ft | 13 kts | 355° |
| 2026-05-09 01:43 | 38.85171 | -77.03979 | 23 ft | 12 kts | 355° |
| 2026-05-09 01:43 | 38.85259 | -77.03988 | 23 ft | 12 kts | 356° |
| 2026-05-09 01:44 | 38.85347 | -77.03996 | 23 ft | 12 kts | 356° |
| 2026-05-09 01:44 | 38.85434 | -77.04004 | 23 ft | 12 kts | 356° |
| 2026-05-09 01:44 | 38.85506 | -77.04015 | 23 ft | 9 kts | 342° |
| 2026-05-09 01:44 | 38.85538 | -77.04076 | 23 ft | 8 kts | 268° |
| 2026-05-09 01:45 | 38.85525 | -77.04135 | 25 ft | 5 kts | 251° |
| 2026-05-09 01:45 | 38.85515 | -77.04176 | 26 ft | 3 kts | 252° |
| 2026-05-09 01:45 | 38.85508 | -77.04204 | 26 ft | 5 kts | 252° |
| 2026-05-09 01:45 | 38.85492 | -77.04248 | 27 ft | 3 kts | 202° |
| 2026-05-09 01:46 | 38.85461 | -77.04243 | 27 ft | 5 kts | 164° |
| 2026-05-09 01:46 | 38.85440 | -77.04234 | 27 ft | 1 kts | 164° |